createdAt,value
2023-02-11T00:01:30.114Z,19.45
2023-02-11T00:03:59.625Z,16.98
2023-02-11T00:06:30.552Z,15.57
2023-02-11T00:09:00.461Z,17.05
2023-02-11T00:11:30.325Z,22.83
2023-02-11T00:14:00.004Z,18.40
2023-02-11T00:16:29.392Z,19.10
2023-02-11T00:18:58.716Z,19.35
2023-02-11T00:21:27.997Z,21.10
2023-02-11T00:23:58.562Z,20.45
2023-02-11T00:26:30.473Z,18.13
2023-02-11T00:28:59.205Z,17.17
2023-02-11T00:31:27.829Z,23.60
2023-02-11T00:33:56.573Z,21.05
2023-02-11T00:36:28.580Z,20.58
2023-02-11T00:38:58.620Z,18.08
2023-02-11T00:41:28.508Z,19.88
2023-02-11T00:43:57.096Z,18.08
2023-02-11T00:46:25.735Z,16.63
2023-02-11T00:48:57.564Z,22.30
2023-02-11T00:51:26.787Z,17.55
2023-02-11T00:53:55.389Z,20.02
2023-02-11T00:56:25.179Z,22.67
2023-02-11T00:58:55.051Z,20.05
2023-02-11T01:01:23.899Z,18.10
2023-02-11T01:03:52.630Z,20.95
2023-02-11T01:06:21.047Z,20.30
2023-02-11T01:08:49.556Z,15.10
2023-02-11T01:11:20.713Z,16.15
2023-02-11T01:13:50.339Z,19.75
2023-02-11T01:16:21.337Z,13.63
2023-02-11T01:18:49.852Z,23.42
2023-02-11T01:21:19.390Z,16.85
2023-02-11T01:23:48.219Z,17.35
2023-02-11T01:26:16.761Z,15.20
2023-02-11T01:28:45.591Z,20.13
2023-02-11T01:31:14.457Z,16.20
2023-02-11T01:33:44.323Z,16.85
2023-02-11T01:36:13.403Z,15.43
2023-02-11T01:38:41.940Z,15.60
2023-02-11T01:41:14.512Z,17.65
2023-02-11T01:43:44.787Z,14.38
2023-02-11T01:46:30.939Z,15.25
2023-02-11T01:49:05.365Z,14.77
2023-02-11T01:51:38.988Z,18.13
2023-02-11T01:54:27.852Z,21.42
2023-02-11T01:57:17.377Z,19.83
2023-02-11T01:59:51.662Z,14.52
2023-02-11T02:02:24.869Z,20.55
2023-02-11T02:05:01.617Z,16.73
2023-02-11T02:07:35.763Z,20.73
2023-02-11T02:10:10.676Z,19.77
2023-02-11T02:12:39.127Z,18.08
2023-02-11T02:15:20.327Z,16.95
2023-02-11T02:17:58.333Z,23.52
2023-02-11T02:21:04.690Z,19.98
2023-02-11T02:24:05.485Z,20.75
2023-02-11T02:26:54.829Z,22.98
2023-02-11T02:29:56.586Z,18.73
2023-02-11T02:32:37.035Z,16.73
2023-02-11T02:35:16.628Z,18.08
2023-02-11T02:37:52.240Z,18.13
2023-02-11T02:40:24.529Z,15.60
2023-02-11T02:42:55.223Z,15.98
2023-02-11T02:45:23.683Z,21.90
2023-02-11T02:47:53.522Z,20.45
2023-02-11T02:50:30.161Z,18.02
2023-02-11T02:53:12.890Z,15.27
2023-02-11T02:55:50.860Z,13.02
2023-02-11T02:58:36.532Z,19.20
2023-02-11T03:01:15.202Z,15.38
2023-02-11T03:03:54.410Z,18.13
2023-02-11T03:06:31.575Z,16.10
2023-02-11T03:09:09.651Z,18.77
2023-02-11T03:11:40.871Z,19.77
2023-02-11T03:14:14.753Z,21.90
2023-02-11T03:16:44.974Z,24.20
2023-02-11T03:19:19.934Z,20.17
2023-02-11T03:21:52.550Z,22.33
2023-02-11T03:24:28.379Z,15.57
2023-02-11T03:27:00.054Z,15.32
2023-02-11T03:29:36.539Z,27.00
2023-02-11T03:32:16.063Z,18.42
2023-02-11T03:34:49.922Z,17.60
2023-02-11T03:37:22.966Z,21.27
2023-02-11T03:39:55.645Z,13.45
2023-02-11T03:42:27.454Z,14.85
2023-02-11T03:45:00.936Z,17.02
2023-02-11T03:47:32.417Z,17.80
2023-02-11T03:50:05.983Z,18.45
2023-02-11T03:52:36.062Z,19.90
2023-02-11T03:55:09.907Z,20.65
2023-02-11T03:57:38.731Z,18.25
2023-02-11T04:00:08.660Z,15.68
2023-02-11T04:02:43.065Z,17.23
2023-02-11T04:05:15.799Z,17.65
2023-02-11T04:07:44.199Z,14.52
2023-02-11T04:10:13.215Z,16.75
2023-02-11T04:12:41.715Z,16.75
2023-02-11T04:15:10.813Z,21.75
2023-02-11T04:17:40.402Z,19.15
2023-02-11T04:20:09.797Z,17.67
2023-02-11T04:22:39.745Z,21.05
2023-02-11T04:25:09.391Z,17.73
2023-02-11T04:27:38.003Z,19.50
2023-02-11T04:30:08.414Z,15.90
2023-02-11T04:32:36.796Z,19.30
2023-02-11T04:35:05.790Z,19.75
2023-02-11T04:37:34.238Z,17.05
2023-02-11T04:40:04.671Z,20.77
2023-02-11T04:42:33.121Z,16.95
2023-02-11T04:45:01.850Z,17.15
2023-02-11T04:47:30.457Z,20.10
2023-02-11T04:49:58.817Z,23.00
2023-02-11T04:52:27.241Z,19.67
2023-02-11T04:54:55.657Z,17.88
2023-02-11T04:57:25.397Z,20.48
2023-02-11T04:59:53.798Z,31.65
2023-02-11T05:02:22.294Z,22.33
2023-02-11T05:04:50.790Z,22.35
2023-02-11T05:07:19.335Z,21.05
2023-02-11T05:09:47.823Z,18.77
2023-02-11T05:12:16.271Z,18.38
2023-02-11T05:14:46.160Z,20.02
2023-02-11T05:17:14.716Z,14.00
2023-02-11T05:19:43.557Z,24.05
2023-02-11T05:22:11.964Z,17.50
2023-02-11T05:24:40.637Z,16.85
2023-02-11T05:27:09.054Z,20.25
2023-02-11T05:29:37.648Z,14.75
2023-02-11T05:32:08.999Z,24.70
2023-02-11T05:34:37.623Z,14.93
2023-02-11T05:37:06.078Z,14.80
2023-02-11T05:39:34.550Z,18.13
2023-02-11T05:42:03.010Z,21.58
2023-02-11T05:44:31.491Z,16.77
2023-02-11T05:46:59.963Z,21.75
2023-02-11T05:49:29.782Z,19.20
2023-02-11T05:51:58.502Z,18.83
2023-02-11T05:54:26.930Z,18.90
2023-02-11T05:56:55.304Z,19.90
2023-02-11T05:59:23.732Z,17.27
2023-02-11T06:01:52.140Z,20.88
2023-02-11T06:04:20.602Z,16.20
2023-02-11T06:06:50.468Z,19.52
2023-02-11T06:09:18.902Z,17.05
2023-02-11T06:11:47.283Z,19.92
2023-02-11T06:14:15.672Z,23.42
2023-02-11T06:16:44.085Z,19.23
2023-02-11T06:19:13.182Z,19.20
2023-02-11T06:21:44.133Z,19.95
2023-02-11T06:24:14.311Z,22.92
2023-02-11T06:26:42.766Z,23.58
2023-02-11T06:29:11.323Z,20.92
2023-02-11T06:31:40.258Z,24.13
2023-02-11T06:34:09.696Z,17.88
2023-02-11T06:36:40.317Z,18.30
2023-02-11T06:39:09.118Z,18.05
2023-02-11T06:41:38.967Z,21.38
2023-02-11T06:44:07.869Z,18.23
2023-02-11T06:46:36.569Z,20.60
2023-02-11T06:49:05.008Z,18.88
2023-02-11T06:51:33.462Z,20.20
2023-02-11T06:54:01.954Z,19.67
2023-02-11T06:56:30.439Z,23.13
2023-02-11T06:59:00.351Z,16.50
2023-02-11T07:01:29.269Z,22.73
2023-02-11T07:03:58.161Z,18.00
2023-02-11T07:06:28.222Z,21.35
2023-02-11T07:08:57.370Z,19.50
2023-02-11T07:11:27.281Z,19.23
2023-02-11T07:13:58.067Z,21.90
2023-02-11T07:16:28.043Z,23.95
2023-02-11T07:18:56.528Z,25.05
2023-02-11T07:21:25.621Z,23.98
2023-02-11T07:23:54.490Z,20.83
2023-02-11T07:26:25.796Z,22.02
2023-02-11T07:28:55.460Z,18.48
2023-02-11T07:31:27.033Z,20.27
2023-02-11T07:33:59.737Z,22.00
2023-02-11T07:36:29.323Z,21.13
2023-02-11T07:38:57.854Z,26.30
2023-02-11T07:41:27.454Z,19.77
2023-02-11T07:43:56.318Z,22.38
2023-02-11T07:46:26.823Z,22.05
2023-02-11T07:48:55.422Z,25.02
2023-02-11T07:51:27.406Z,20.98
2023-02-11T07:53:56.844Z,22.42
2023-02-11T07:56:25.712Z,18.85
2023-02-11T07:58:54.391Z,19.27
2023-02-11T08:01:25.526Z,22.20
2023-02-11T08:03:54.525Z,25.73
2023-02-11T08:06:26.206Z,23.52
2023-02-11T08:08:55.043Z,21.05
2023-02-11T08:11:26.456Z,19.38
2023-02-11T08:13:56.899Z,19.10
2023-02-11T08:18:57.364Z,21.02
2023-02-11T08:21:28.067Z,22.17
2023-02-11T08:23:56.968Z,21.88
2023-02-11T08:26:28.428Z,22.35
2023-02-11T08:28:58.602Z,22.10
2023-02-11T08:31:29.359Z,24.90
2023-02-11T08:33:58.280Z,26.98
2023-02-11T08:36:30.332Z,21.45
2023-02-11T08:39:17.586Z,24.33
2023-02-11T08:41:48.830Z,29.25
2023-02-11T08:44:17.799Z,21.83
2023-02-11T08:46:46.610Z,23.75
2023-02-11T08:49:15.621Z,28.33
2023-02-11T08:51:46.148Z,21.17
2023-02-11T08:54:14.726Z,23.40
2023-02-11T08:56:43.602Z,27.83
2023-02-11T08:59:14.930Z,24.60
2023-02-11T09:01:44.139Z,26.85
2023-02-11T09:04:13.029Z,28.17
2023-02-11T09:06:42.034Z,23.33
2023-02-11T09:09:14.721Z,27.20
2023-02-11T09:11:44.730Z,24.98
2023-02-11T09:14:19.011Z,23.65
2023-02-11T09:16:47.671Z,25.02
2023-02-11T09:19:16.477Z,23.60
2023-02-11T09:21:45.490Z,27.05
2023-02-11T09:24:15.596Z,23.60
2023-02-11T09:26:44.521Z,22.05
2023-02-11T09:29:13.553Z,25.27
2023-02-11T09:31:42.268Z,32.10
2023-02-11T09:34:12.541Z,26.77
2023-02-11T09:36:41.795Z,21.80
2023-02-11T09:39:13.620Z,26.05
2023-02-11T09:42:03.907Z,25.35
2023-02-11T09:44:35.021Z,29.77
2023-02-11T09:47:07.162Z,26.13
2023-02-11T09:49:42.804Z,24.42
2023-02-11T09:52:22.211Z,28.15
2023-02-11T09:54:55.780Z,23.10
2023-02-11T09:57:30.290Z,27.25
2023-02-11T09:59:58.879Z,32.58
2023-02-11T10:02:35.330Z,29.73
2023-02-11T10:07:49.625Z,28.35
2023-02-11T10:10:32.530Z,28.08
2023-02-11T10:13:31.389Z,30.40
2023-02-11T10:16:06.921Z,23.10
2023-02-11T10:19:22.067Z,28.20
2023-02-11T10:21:59.336Z,23.92
2023-02-11T10:24:28.998Z,20.08
2023-02-11T10:26:57.450Z,23.05
2023-02-11T10:29:38.240Z,20.98
2023-02-11T10:32:17.685Z,22.38
2023-02-11T10:34:46.148Z,20.90
2023-02-11T10:37:15.466Z,20.40
2023-02-11T10:39:44.388Z,20.00
2023-02-11T10:42:14.741Z,22.75
2023-02-11T10:44:55.218Z,21.23
2023-02-11T10:47:26.295Z,20.98
2023-02-11T10:49:54.841Z,20.83
2023-02-11T10:52:25.412Z,25.10
2023-02-11T10:54:59.036Z,192.38
2023-02-11T10:57:31.756Z,134.68
2023-02-11T11:00:07.046Z,38.50
2023-02-11T11:02:39.536Z,39.28
2023-02-11T11:05:18.194Z,24.42
2023-02-11T11:07:54.734Z,20.27
2023-02-11T11:10:35.501Z,23.20
2023-02-11T11:13:04.432Z,16.67
2023-02-11T11:15:34.289Z,16.88
2023-02-11T11:18:21.218Z,18.33
2023-02-11T11:20:58.344Z,26.98
2023-02-11T11:26:05.987Z,22.67
2023-02-11T11:28:40.255Z,27.92
2023-02-11T11:31:18.087Z,29.75
2023-02-11T11:33:48.419Z,28.95
2023-02-11T11:36:20.786Z,34.50
2023-02-11T11:38:53.477Z,41.00
2023-02-11T11:41:26.526Z,27.50
2023-02-11T11:44:00.896Z,33.30
2023-02-11T11:46:33.889Z,16.98
2023-02-11T11:49:18.479Z,33.97
2023-02-11T11:51:55.835Z,31.15
2023-02-11T11:54:26.640Z,35.25
2023-02-11T11:57:00.960Z,24.42
2023-02-11T11:59:30.192Z,38.92
2023-02-11T12:02:19.208Z,36.10
2023-02-11T12:04:59.295Z,34.78
2023-02-11T12:07:40.806Z,31.33
2023-02-11T12:10:37.058Z,14.98
2023-02-11T12:13:21.044Z,23.42
2023-02-11T12:16:03.374Z,28.30
2023-02-11T12:18:50.651Z,22.90
2023-02-11T12:21:30.433Z,25.10
2023-02-11T12:24:10.912Z,16.48
2023-02-11T12:26:47.269Z,26.60
2023-02-11T12:29:28.737Z,40.97
2023-02-11T12:32:11.446Z,26.25
2023-02-11T12:35:07.243Z,26.77
2023-02-11T12:37:50.528Z,236.55
2023-02-11T12:40:28.912Z,119.15
2023-02-11T12:43:17.827Z,133.80
2023-02-11T12:46:00.266Z,194.15
2023-02-11T12:48:52.792Z,200.48
2023-02-11T12:51:33.054Z,161.57
2023-02-11T12:54:18.371Z,179.05
2023-02-11T12:56:53.020Z,185.73
2023-02-11T12:59:33.969Z,62.80
2023-02-11T13:02:10.650Z,28.33
2023-02-11T13:04:44.256Z,20.67
2023-02-11T13:07:18.395Z,129.73
2023-02-11T13:09:52.324Z,14.27
2023-02-11T13:12:38.150Z,20.75
2023-02-11T13:15:14.836Z,58.75
2023-02-11T13:17:51.683Z,7.53
2023-02-11T13:20:31.519Z,46.42
2023-02-11T13:23:08.734Z,21.73
2023-02-11T13:25:43.879Z,30.10
2023-02-11T13:28:34.769Z,39.75
2023-02-11T13:31:07.024Z,40.65
2023-02-11T13:33:39.520Z,39.90
2023-02-11T13:36:30.184Z,72.38
2023-02-11T13:39:03.428Z,49.95
2023-02-11T13:41:36.150Z,31.70
2023-02-11T13:44:19.262Z,38.90
2023-02-11T13:46:57.301Z,45.33
2023-02-11T13:49:30.735Z,48.40
2023-02-11T13:52:01.665Z,74.30
2023-02-11T13:54:35.267Z,50.00
2023-02-11T13:57:24.453Z,56.92
2023-02-11T13:59:54.760Z,58.80
2023-02-11T14:02:44.391Z,49.00
2023-02-11T14:05:50.310Z,45.95
2023-02-11T14:08:39.800Z,41.53
2023-02-11T14:11:31.810Z,37.25
2023-02-11T14:14:15.332Z,36.40
2023-02-11T14:17:18.903Z,51.92
2023-02-11T14:19:49.328Z,60.50
2023-02-11T14:22:21.177Z,11.18
2023-02-11T14:24:53.407Z,16.75
2023-02-11T14:27:29.163Z,34.67
2023-02-11T14:30:14.999Z,42.58
2023-02-11T14:33:09.587Z,49.20
2023-02-11T14:38:23.753Z,22.30
2023-02-11T14:40:59.571Z,12.95
2023-02-11T14:43:35.992Z,19.85
2023-02-11T14:46:04.770Z,27.13
2023-02-11T14:48:37.293Z,23.90
2023-02-11T14:51:09.476Z,13.10
2023-02-11T14:53:44.496Z,14.43
2023-02-11T14:56:21.903Z,100.45
2023-02-11T14:58:52.723Z,58.92
2023-02-11T15:01:29.813Z,49.78
2023-02-11T15:03:59.405Z,21.90
2023-02-11T15:06:31.595Z,26.67
2023-02-11T15:09:03.529Z,21.25
2023-02-11T15:11:34.991Z,59.88
2023-02-11T15:14:11.997Z,17.60
2023-02-11T15:16:43.482Z,19.45
2023-02-11T15:19:22.368Z,30.27
2023-02-11T15:21:52.137Z,26.60
2023-02-11T15:24:27.630Z,20.60
2023-02-11T15:27:04.228Z,42.15
2023-02-11T15:29:40.210Z,17.35
2023-02-11T15:32:15.014Z,22.38
2023-02-11T15:34:44.197Z,20.10
2023-02-11T15:37:15.366Z,36.03
2023-02-11T15:39:44.096Z,30.25
2023-02-11T15:42:23.528Z,20.60
2023-02-11T15:45:12.490Z,26.77
2023-02-11T15:47:41.891Z,21.77
2023-02-11T15:50:21.520Z,28.17
2023-02-11T15:52:50.848Z,8.93
2023-02-11T15:55:20.577Z,10.18
2023-02-11T15:57:54.719Z,10.02
2023-02-11T16:00:30.140Z,9.95
2023-02-11T16:02:58.604Z,17.98
2023-02-11T16:05:31.095Z,33.22
2023-02-11T16:08:00.460Z,8.45
2023-02-11T16:10:31.028Z,11.48
2023-02-11T16:13:17.560Z,8.60
2023-02-11T16:15:52.361Z,9.95
2023-02-11T16:18:37.327Z,12.00
2023-02-11T16:21:14.400Z,23.60
2023-02-11T16:23:44.201Z,63.00
2023-02-11T16:26:20.879Z,12.52
2023-02-11T16:31:22.875Z,12.95
2023-02-11T16:33:53.820Z,33.17
2023-02-11T16:36:24.548Z,23.48
2023-02-11T16:38:53.951Z,25.27
2023-02-11T16:41:22.478Z,17.10
2023-02-11T16:43:51.033Z,12.80
2023-02-11T16:46:19.752Z,14.93
2023-02-11T16:48:49.721Z,17.35
2023-02-11T16:51:18.202Z,14.68
2023-02-11T16:53:46.708Z,15.60
2023-02-11T16:56:17.129Z,18.67
2023-02-11T16:58:46.170Z,15.68
2023-02-11T17:01:14.863Z,19.80
2023-02-11T17:03:43.812Z,17.38
2023-02-11T17:06:14.516Z,27.25
2023-02-11T17:08:43.171Z,22.90
2023-02-11T17:11:11.696Z,23.08
2023-02-11T17:13:41.936Z,20.92
2023-02-11T17:16:18.066Z,28.33
2023-02-11T17:21:16.826Z,19.02
2023-02-11T17:23:45.978Z,19.40
2023-02-11T17:26:14.536Z,14.15
2023-02-11T17:28:43.351Z,15.38
2023-02-11T17:31:11.982Z,14.98
2023-02-11T17:33:40.723Z,14.25
2023-02-11T17:36:10.595Z,13.85
2023-02-11T17:38:40.443Z,17.55
2023-02-11T17:41:08.930Z,16.60
2023-02-11T17:43:37.442Z,17.75
2023-02-11T17:46:08.355Z,29.77
2023-02-11T17:48:38.535Z,17.63
2023-02-11T17:53:37.293Z,21.27
2023-02-11T17:56:08.950Z,18.70
2023-02-11T17:58:37.485Z,26.77
2023-02-11T18:01:06.392Z,19.88
2023-02-11T18:03:34.869Z,19.73
2023-02-11T18:06:05.455Z,27.60
2023-02-11T18:08:34.878Z,34.10
2023-02-11T18:11:03.936Z,27.02
2023-02-11T18:13:33.769Z,22.77
2023-02-11T18:16:08.390Z,27.75
2023-02-11T18:18:36.995Z,47.97
2023-02-11T18:21:08.537Z,40.28
2023-02-11T18:23:37.126Z,30.27
2023-02-11T18:26:08.703Z,27.67
2023-02-11T18:28:38.870Z,38.17
2023-02-11T18:33:37.712Z,39.35
2023-02-11T18:36:07.339Z,43.03
2023-02-11T18:38:36.021Z,40.28
2023-02-11T18:41:05.277Z,23.90
2023-02-11T18:43:35.427Z,35.55
2023-02-11T18:48:37.142Z,29.77
2023-02-11T18:51:09.996Z,44.97
2023-02-11T18:53:38.545Z,61.50
2023-02-11T18:56:12.665Z,24.48
2023-02-11T18:58:41.540Z,20.40
2023-02-11T19:01:16.487Z,21.30
2023-02-11T19:03:46.439Z,22.58
2023-02-11T19:06:16.882Z,22.90
2023-02-11T19:08:45.470Z,24.45
2023-02-11T19:11:16.107Z,24.77
2023-02-11T19:13:44.512Z,23.80
2023-02-11T19:16:16.811Z,22.08
2023-02-11T19:18:45.344Z,26.20
2023-02-11T19:21:13.946Z,23.05
2023-02-11T19:23:42.407Z,23.50
2023-02-11T19:26:10.806Z,22.13
2023-02-11T19:28:39.418Z,24.13
2023-02-11T19:31:09.162Z,23.60
2023-02-11T19:33:39.327Z,21.23
2023-02-11T19:36:09.699Z,20.92
2023-02-11T19:38:39.030Z,18.40
2023-02-11T19:41:07.556Z,22.35
2023-02-11T19:43:36.257Z,26.30
2023-02-11T19:46:05.508Z,23.10
2023-02-11T19:48:34.161Z,21.30
2023-02-11T19:51:13.110Z,21.20
2023-02-11T19:53:41.949Z,20.83
2023-02-11T19:56:10.712Z,24.35
2023-02-11T19:58:40.564Z,20.88
2023-02-11T20:01:11.396Z,22.92
2023-02-11T20:03:42.480Z,19.63
2023-02-11T20:06:15.726Z,22.83
2023-02-11T20:08:44.585Z,22.52
2023-02-11T20:11:14.344Z,28.13
2023-02-11T20:13:43.600Z,25.83
2023-02-11T20:16:13.650Z,25.73
2023-02-11T20:18:42.441Z,25.35
2023-02-11T20:21:14.058Z,23.00
2023-02-11T20:23:42.842Z,22.85
2023-02-11T20:26:13.928Z,25.45
2023-02-11T20:28:43.040Z,26.08
2023-02-11T20:31:12.555Z,22.88
2023-02-11T20:33:42.303Z,23.52
2023-02-11T20:36:15.841Z,25.23
2023-02-11T20:38:44.733Z,18.33
2023-02-11T20:41:15.602Z,24.80
2023-02-11T20:43:46.620Z,21.17
2023-02-11T20:46:18.137Z,22.92
2023-02-11T20:48:47.338Z,25.55
2023-02-11T20:51:20.272Z,21.10
2023-02-11T20:53:51.243Z,21.95
2023-02-11T20:56:22.129Z,30.48
2023-02-11T20:58:51.483Z,24.25
2023-02-11T21:01:22.220Z,27.13
2023-02-11T21:03:52.933Z,23.95
2023-02-11T21:06:24.480Z,22.17
2023-02-11T21:08:53.755Z,18.40
2023-02-11T21:11:22.341Z,19.02
2023-02-11T21:13:51.161Z,24.40
2023-02-11T21:16:22.152Z,23.02
2023-02-11T21:18:52.152Z,20.45
2023-02-11T21:21:22.393Z,21.45
2023-02-11T21:23:51.410Z,23.77
2023-02-11T21:26:19.890Z,22.02
2023-02-11T21:28:48.743Z,27.45
2023-02-11T21:31:20.618Z,23.08
2023-02-11T21:33:49.441Z,20.52
2023-02-11T21:36:18.875Z,19.30
2023-02-11T21:38:49.802Z,21.98
2023-02-11T21:41:19.757Z,23.52
2023-02-11T21:43:48.274Z,24.25
2023-02-11T21:46:17.944Z,23.80
2023-02-11T21:48:47.078Z,23.00
2023-02-11T21:51:17.784Z,25.15
2023-02-11T21:53:46.767Z,24.63
2023-02-11T21:56:18.375Z,23.52
2023-02-11T21:58:47.492Z,20.40
2023-02-11T22:01:18.016Z,20.92
2023-02-11T22:03:47.625Z,20.35
2023-02-11T22:06:18.707Z,27.33
2023-02-11T22:08:47.145Z,23.77
2023-02-11T22:11:17.250Z,21.30
2023-02-11T22:13:46.228Z,22.58
2023-02-11T22:16:17.225Z,22.67
2023-02-11T22:18:46.413Z,23.48
2023-02-11T22:21:16.720Z,27.00
2023-02-11T22:23:45.620Z,24.60
2023-02-11T22:26:15.594Z,20.92
2023-02-11T22:28:46.192Z,24.70
2023-02-11T22:31:17.490Z,25.48
2023-02-11T22:33:46.939Z,25.40
2023-02-11T22:36:17.438Z,25.27
2023-02-11T22:38:46.244Z,26.80
2023-02-11T22:41:14.820Z,23.05
2023-02-11T22:43:45.521Z,19.88
2023-02-11T22:46:16.617Z,24.52
2023-02-11T22:48:45.449Z,20.73
2023-02-11T22:51:16.021Z,24.70
2023-02-11T22:53:44.707Z,24.05
2023-02-11T22:56:15.781Z,21.00
2023-02-11T22:58:45.843Z,24.17
2023-02-11T23:01:14.959Z,23.40
2023-02-11T23:03:43.958Z,27.60
2023-02-11T23:06:13.046Z,30.33
2023-02-11T23:08:42.877Z,24.48
2023-02-11T23:11:13.257Z,22.70
2023-02-11T23:13:43.140Z,24.40
2023-02-11T23:16:14.794Z,23.70
2023-02-11T23:18:45.136Z,23.92
2023-02-11T23:21:16.538Z,22.67
2023-02-11T23:23:46.117Z,25.80
2023-02-11T23:26:16.886Z,24.52
2023-02-11T23:28:46.159Z,23.88
2023-02-11T23:31:19.643Z,24.50
2023-02-11T23:33:49.189Z,27.65
2023-02-11T23:36:19.258Z,23.80
2023-02-11T23:38:48.005Z,23.35
2023-02-11T23:41:17.225Z,24.10
2023-02-11T23:43:45.858Z,24.40
2023-02-11T23:46:14.368Z,21.80
2023-02-11T23:48:44.483Z,26.52
2023-02-11T23:51:12.972Z,23.05
2023-02-11T23:53:41.706Z,25.75
2023-02-11T23:56:14.446Z,29.48
2023-02-11T23:58:44.702Z,22.98
